• Join FlightAware (Why Join?)
  • Login
  • US Flag 
07:04AM EST


 

Airport Tracker/Info


-or-


 

Live Flight TrackerFlight Track Log ✈ N742AX ✈ 17-Apr-2013 ✈ SYCJ / GEO - KMIA

Flight Track Log - Related Links

Times and Time Zones

All times are in EDT time to prevent confusion due to time zone crossing. See the N742AX flight status page for this flight to view local times or setup timezone preferences in your user account.

Time Position Orientation Groundspeed Altitude Reporting Facility
EDT Latitude Longitude Course Direction KTS MPH feet Rate Location/Type
02:02PM 15.8167 -64.8000 316° Northwest 410 472 40,000  Level San Juan Center
02:03PM 15.9000 -64.8833 316° Northwest 410 472 40,000  Level San Juan Center
02:04PM 15.9833 -64.9667 316° Northwest 420 483 40,000  Level San Juan Center
02:05PM 16.0667 -65.0500 316° Northwest 410 472 40,000  Level San Juan Center
02:06PM 16.1667 -65.1167 327° Northwest 410 472 40,000  Level San Juan Center
02:07PM 16.2500 -65.2000 316° Northwest 420 483 40,000  Level San Juan Center
02:08PM 16.3333 -65.2500 330° Northwest 400 460 40,000  Level San Juan Center
02:09PM 16.4333 -65.3167 327° Northwest 390 449 40,000  Level San Juan Center
02:10PM 16.5167 -65.4000 316° Northwest 410 472 40,000  Level San Juan Center
02:11PM 16.6000 -65.4667 323° Northwest 410 472 40,000  Level San Juan Center
02:12PM 16.7000 -65.5500 321° Northwest 400 460 40,000  Level San Juan Center
02:13PM 16.7833 -65.6167 323° Northwest 400 460 40,000  Level San Juan Center
02:19PM 17.2290 -66.1100 323° Northwest 392 451 40,000  Level FlightAware
02:20PM 17.2820 -66.1760 310° West 391 450 40,000  Level FlightAware
02:22PM 17.4660 -66.4050 310° West 392 451 40,000  Level FlightAware
02:23PM 17.5130 -66.4630 310° West 392 451 40,000  Level FlightAware
02:24PM 17.5650 -66.5270 310° West 391 450 40,000  Level FlightAware
02:24PM 17.6030 -66.5730 311° West 392 451 40,000  Level FlightAware
02:25PM 17.6490 -66.6300 310° West 392 451 40,000  Level FlightAware
02:26PM 17.7140 -66.7080 311° West 394 453 40,000  Level FlightAware
02:27PM 17.7640 -66.7660 312° West 395 455 40,000  Level FlightAware
02:27PM 17.8230 -66.8280 315° West 398 458 40,000  Level FlightAware
02:28PM 17.8740 -66.8850 313° West 396 456 40,000  Level FlightAware
02:29PM 17.9300 -66.9460 314° West 397 457 40,000  Level FlightAware
02:29PM 17.9800 -67.0010 314° West 400 460 40,000  Level FlightAware
02:30PM 18.0350 -67.0560 316° Northwest 404 465 40,000  Level FlightAware
02:31PM 18.0980 -67.1180 317° Northwest 406 467 40,000  Level FlightAware
02:32PM 18.1590 -67.1640 324° Northwest 416 479 40,000  Level FlightAware
02:32PM 18.2330 -67.2080 331° Northwest 417 480 40,000  Level FlightAware
02:33PM 18.3010 -67.2480 331° Northwest 419 482 40,000  Level FlightAware
02:34PM 18.3690 -67.2890 330° Northwest 420 483 40,000  Level FlightAware
02:34PM 18.4450 -67.3330 331° Northwest 420 483 40,000  Level FlightAware
02:35PM 18.5070 -67.3710 330° Northwest 421 484 40,000  Level FlightAware
02:39PM 18.8870 -67.6150 329° Northwest 414 476 40,000  Level FlightAware
02:39PM 18.9340 -67.6760 309° West 412 474 40,000  Level FlightAware
02:40PM 18.9770 -67.7360 307° West 412 474 40,000  Level FlightAware
02:41PM 18.9833 -67.7833 307° West 410 472 40,000  Level San Juan Center
02:42PM 19.0667 -67.8667 317° Northwest 410 472 40,000  Level San Juan Center
02:43PM 19.1333 -67.9667 305° West 410 472 40,000  Level San Juan Center
02:44PM 19.2000 -68.0667 305° West 410 472 40,000  Level San Juan Center
02:45PM 19.2833 -68.1667 311° West 410 472 40,000  Level San Juan Center
02:46PM 19.3500 -68.2500 310° West 410 472 40,000  Level San Juan Center
02:47PM 19.4167 -68.3500 305° West 410 472 40,000  Level San Juan Center
02:48PM 19.4833 -68.4500 305° West 410 472 40,000  Level San Juan Center
02:49PM 19.5500 -68.5333 310° West 410 472 40,000  Level San Juan Center
02:50PM 19.6586 -68.6892 323° Northwest 479 551 40,000  Level Miami Center
02:51PM 19.7239 -68.7844 306° West 441 507 40,000  Level Miami Center
02:52PM 19.7872 -68.8839 304° West 417 480 40,000  Level Miami Center
02:53PM 19.8467 -68.9861 302° West 412 474 40,000  Level Miami Center
02:54PM 19.9036 -69.0886 301° West 407 468 40,000  Level Miami Center
02:55PM 19.9631 -69.1931 301° West 407 468 40,000  Level Miami Center
02:56PM 20.0222 -69.2978 301° West 412 474 40,000  Level Miami Center
02:57PM 20.0814 -69.4003 302° West 412 474 40,000  Level Miami Center
02:58PM 20.1403 -69.5008 302° West 412 474 40,000  Level Miami Center
02:59PM 20.2014 -69.6078 301° West 412 474 40,000  Level Miami Center
03:00PM 20.2581 -69.7086 301° West 412 474 40,000  Level Miami Center
03:01PM 20.3192 -69.8136 302° West 412 474 40,000  Level Miami Center
03:02PM 20.3800 -69.9164 302° West 412 474 40,000  Level Miami Center
03:03PM 20.4367 -70.0219 300° West 412 474 40,000  Level Miami Center
03:04PM 20.4953 -70.1228 302° West 412 474 40,000  Level Miami Center
03:05PM 20.5519 -70.2286 300° West 412 474 40,000  Level Miami Center
03:06PM 20.6106 -70.3297 302° West 412 474 40,000  Level Miami Center
03:07PM 20.6689 -70.4331 301° West 412 474 40,000  Level Miami Center
03:08PM 20.7275 -70.5411 300° West 412 474 40,000  Level Miami Center
03:09PM 20.7858 -70.6450 301° West 412 474 40,000  Level Miami Center
03:10PM 20.8442 -70.7486 301° West 412 474 40,000  Level Miami Center
03:11PM 20.9025 -70.8503 302° West 412 474 40,000  Level Miami Center
03:12PM 20.9586 -70.9544 300° West 412 474 40,000  Level Miami Center
03:13PM 21.0147 -71.0586 300° West 412 474 40,000  Level Miami Center
03:14PM 21.0708 -71.1628 300° West 407 468 40,000  Level Miami Center
03:15PM 21.1267 -71.2669 300° West 407 468 40,000  Level Miami Center
03:16PM 21.1828 -71.3736 299° West 407 468 40,000  Level Miami Center
03:17PM 21.2450 -71.4892 300° West 407 468 40,000  Level Miami Center
03:18PM 21.3008 -71.5914 300° West 407 468 40,000  Level Miami Center
03:19PM 21.3606 -71.6961 301° West 407 468 40,000  Level Miami Center
03:20PM 21.4183 -71.7983 301° West 407 468 40,000  Level Miami Center
03:21PM 21.4758 -71.9011 301° West 407 468 40,000  Level Miami Center
03:22PM 21.5336 -72.0061 301° West 407 468 40,000  Level Miami Center
03:23PM 21.5889 -72.1111 300° West 412 474 40,000  Level Miami Center
03:24PM 21.6464 -72.2161 301° West 412 474 40,000  Level Miami Center
03:25PM 21.7058 -72.3214 301° West 412 474 40,000  Level Miami Center
03:26PM 21.7633 -72.4264 301° West 412 474 40,000  Level Miami Center
03:27PM 21.8206 -72.5297 301° West 412 474 40,000  Level Miami Center
03:28PM 21.8778 -72.6350 300° West 412 474 40,000  Level Miami Center
03:29PM 21.9350 -72.7431 300° West 412 474 40,000  Level Miami Center
03:30PM 21.9922 -72.8508 300° West 412 474 40,000  Level Miami Center
03:31PM 22.0492 -72.9589 300° West 412 474 40,000  Level Miami Center
03:32PM 22.1042 -73.0647 299° West 412 474 40,000  Level Miami Center
03:33PM 22.1611 -73.1706 300° West 412 474 40,000  Level Miami Center
03:34PM 22.2158 -73.2789 299° West 412 474 40,000  Level Miami Center
03:35PM 22.2706 -73.3875 299° West 406 467 40,000  Level Miami Center
03:36PM 22.3147 -73.4942 294° West 401 461 40,000  Level Miami Center
03:37PM 22.3714 -73.6047 299° West 401 461 40,000  Level Miami Center
03:38PM 22.4239 -73.7136 298° West 401 461 40,000  Level Miami Center
03:39PM 22.4822 -73.8200 301° West 401 461 40,000  Level Miami Center
03:40PM 22.5389 -73.9289 299° West 406 467 40,000  Level Miami Center
03:41PM 22.5950 -74.0333 300° West 406 467 40,000  Level Miami Center
03:42PM 22.6514 -74.1425 299° West 412 474 40,000  Level Miami Center
03:43PM 22.7078 -74.2514 299° West 412 474 40,000  Level Miami Center
03:44PM 22.7639 -74.3583 300° West 412 474 40,000  Level Miami Center
03:45PM 22.8200 -74.4700 299° West 417 480 40,000  Level Miami Center
03:46PM 22.8758 -74.5750 300° West 412 474 40,000  Level Miami Center
03:47PM 22.9339 -74.6822 300° West 412 474 40,000  Level Miami Center
03:48PM 22.9897 -74.7919 299° West 412 474 40,000  Level Miami Center
03:49PM 23.0456 -74.9017 299° West 412 474 40,000  Level Miami Center
03:50PM 23.1011 -75.0114 299° West 412 474 40,000  Level Miami Center
03:51PM 23.1547 -75.1189 298° West 412 474 40,000  Level Miami Center
03:52PM 23.2103 -75.2244 300° West 412 474 40,000  Level Miami Center
03:53PM 23.2658 -75.3325 299° West 412 474 40,000  Level Miami Center
03:54PM 23.3189 -75.4403 298° West 412 474 40,000  Level Miami Center
03:55PM 23.3742 -75.5461 300° West 412 474 40,000  Level Miami Center
03:56PM 23.4294 -75.6542 299° West 407 468 40,000  Level Miami Center
03:57PM 23.4867 -75.7600 301° West 412 474 40,000  Level Miami Center
03:58PM 23.5397 -75.8686 298° West 412 474 40,000  Level Miami Center
03:59PM 23.5906 -75.9722 298° West 421 484 40,000  Level Miami Center
04:00PM 23.6433 -76.0786 298° West 409 471 40,000  Level Miami Center
04:01PM 23.6961 -76.1850 298° West 404 465 40,000  Level Miami Center
04:02PM 23.7489 -76.2936 298° West 404 465 40,000  Level Miami Center
04:03PM 23.8014 -76.4025 298° West 404 465 40,000  Level Miami Center
04:04PM 23.8583 -76.5111 300° West 404 465 40,000  Level Miami Center
04:05PM 23.9108 -76.6203 298° West 409 471 40,000  Level Miami Center
04:06PM 23.9653 -76.7314 298° West 409 471 40,000  Level Miami Center
04:07PM 24.0175 -76.8406 298° West 409 471 40,000  Level Miami Center
04:08PM 24.0761 -76.9567 299° West 404 465 40,000  Level Miami Center
04:09PM 24.1303 -77.0683 298° West 404 465 40,000  Level Miami Center
04:10PM 24.1822 -77.1778 298° West 404 465 40,000  Level Miami Center
04:11PM 24.2300 -77.2781 298° West 410 472 40,000  Level Miami Center
04:12PM 24.2861 -77.3900 299° West 408 470 40,000  Level Miami Center
04:13PM 24.3400 -77.5019 298° West 408 470 40,000  Level Miami Center
04:14PM 24.3919 -77.6119 297° West 415 478 40,000  Level Miami Center
04:20PM 24.7370 -78.2780 297° West 417 480 40,000  Level FlightAware
04:21PM 24.7770 -78.3610 298° West 416 479 40,000 -180 Level FlightAware
04:22PM 24.8230 -78.4580 298° West 415 478 39,800 -720 Descending FlightAware
04:22PM 24.8580 -78.5300 298° West 411 473 39,000 -1,440 Descending FlightAware
04:23PM 24.8940 -78.6050 298° West 402 463 37,900 -1,680 Descending FlightAware
04:24PM 24.9310 -78.6840 297° West 399 459 36,700 -1,740 Descending FlightAware
04:24PM 24.9630 -78.7510 298° West 400 460 35,600 -1,380 Descending FlightAware
04:25PM 24.9970 -78.8220 298° West 404 465 35,000 -480 Descending FlightAware
04:26PM 25.0410 -78.9160 297° West 420 483 34,900 -1,320 Descending FlightAware
04:26PM 25.0780 -78.9940 298° West 425 489 33,100 -3,600 Descending FlightAware
04:27PM 25.1190 -79.0820 297° West 431 496 29,800 -4,920 Descending FlightAware
04:28PM 25.1550 -79.1590 297° West 419 482 26,200 -4,440 Descending FlightAware
04:28PM 25.1900 -79.2350 297° West 415 478 23,900 -3,060 Descending FlightAware
04:29PM 25.2290 -79.3170 298° West 394 453 21,900 -2,700 Descending FlightAware
04:30PM 25.2620 -79.3880 297° West 394 453 20,100 -2,760 Descending FlightAware
04:30PM 25.2890 -79.4440 298° West 401 461 18,700 -2,880 Descending FlightAware
04:31PM 25.3220 -79.5160 297° West 396 456 16,800 -2,760 Descending FlightAware
04:32PM 25.3590 -79.5960 297° West 378 435 14,800 -2,700 Descending FlightAware
04:32PM 25.3910 -79.6650 297° West 377 434 13,000 -1,860 Descending FlightAware
04:33PM 25.4360 -79.7530 300° West 337 388 11,900 -1,200 Descending FlightAware
04:34PM 25.4680 -79.8050 304° West 338 389 11,200 -900 Descending FlightAware
04:35PM 25.5080 -79.8680 305° West 334 384 10,700 -720 Descending FlightAware
04:35PM 25.5440 -79.9240 305° West 311 358 10,200 -660 Descending FlightAware
04:36PM 25.5640 -79.9550 306° West 291 335 10,000 -360 Descending FlightAware
04:36PM 25.5880 -79.9910 306° West 287 330 9,900 -120 Descending FlightAware
04:37PM 25.6110 -80.0270 305° West 289 333 9,900  Level FlightAware
04:37PM 25.6320 -80.0570 308° West 288 331 9,900  Level FlightAware
04:37PM 25.6440 -80.0760 305° West 288 331 9,900 -720 Level FlightAware
04:38PM 25.6670 -80.1110 306° West 280 322 9,400 -1,200 Descending FlightAware
04:38PM 25.6840 -80.1410 302° West 274 315 8,800 -1,440 Descending FlightAware
04:39PM 25.6960 -80.1810 288° West 269 310 8,100 -900 Descending FlightAware
04:39PM 25.7060 -80.2210 286° West 269 310 7,900 -240 Descending FlightAware
04:40PM 25.7150 -80.2550 286° West 268 308 7,900 -360 Level FlightAware
04:40PM 25.7250 -80.2960 285° West 264 304 7,600 -1,140 Descending FlightAware
04:41PM 25.7310 -80.3280 282° West 266 306 6,900 -1,680 Descending FlightAware
04:41PM 25.7300 -80.3690 268° West 265 305 6,100 -1,560 Descending FlightAware
04:42PM 25.7280 -80.4020 266° West 261 300 5,500 -1,380 Descending FlightAware
04:42PM 25.7270 -80.4220 267° West 260 299 5,200 -1,500 Descending FlightAware
04:42PM 25.7250 -80.4620 267° West 257 296 4,400 -1,680 Descending FlightAware
04:43PM 25.7280 -80.4750 284° West 244 281 4,100 -1,680 Descending FlightAware
04:43PM 25.7390 -80.4880 313° West 223 257 3,700 -1,620 Descending FlightAware
04:43PM 25.7530 -80.4940 339° North 212 244 3,300 -1,080 Descending FlightAware
04:44PM 25.7760 -80.4790 30° Northeast 186 214 2,900 -660 Descending FlightAware
04:44PM 25.7870 -80.4590 59° Northeast 177 204 2,700 -1,140 Descending FlightAware
04:44PM 25.7970 -80.4360 64° Northeast 167 192 1,900 -1,200 Descending FlightAware
04:45PM 25.8020 -80.4100 78° East 153 176 1,500 -840 Descending FlightAware
04:45PM 25.8030 -80.4000 84° East 140 161 1,300 -780 Descending FlightAware
04:46PM 25.8030 -80.3840 90° East 109 125 1,000 -600 Descending FlightAware
04:46PM 25.8040 -80.3670 86° East 108 124 800 -600 Descending FlightAware
04:47PM 25.8040 -80.3550 90° East 106 122 500 -600 Descending FlightAware
04:47PM 25.8040 -80.3380 90° East 105 121 300 -240 Descending FlightAware
04:47PM 25.8050 -80.3260 85° East 105 121 300  Level FlightAware